createdAt,value
2018-11-02T00:00:39.424Z,99.99
2018-11-02T00:01:39.393Z,99.99
2018-11-02T00:02:39.375Z,99.99
2018-11-02T00:03:39.335Z,99.99
2018-11-02T00:04:39.310Z,99.99
2018-11-02T00:05:39.287Z,99.99
2018-11-02T00:06:39.254Z,99.99
2018-11-02T00:07:39.235Z,99.99
2018-11-02T00:08:39.241Z,99.99
2018-11-02T00:09:39.177Z,99.99
2018-11-02T00:10:39.157Z,99.99
2018-11-02T00:11:39.119Z,99.99
2018-11-02T00:12:39.135Z,99.99
2018-11-02T00:13:39.067Z,99.99
2018-11-02T00:14:39.055Z,99.99
2018-11-02T00:15:39.014Z,99.99
2018-11-02T00:16:38.992Z,99.99
2018-11-02T00:17:38.960Z,99.99
2018-11-02T00:18:38.935Z,99.99
2018-11-02T00:19:38.909Z,99.99
2018-11-02T00:20:38.877Z,99.99
2018-11-02T00:21:38.860Z,99.99
2018-11-02T00:22:38.830Z,99.99
2018-11-02T00:23:38.797Z,99.99
2018-11-02T00:24:38.772Z,99.99
2018-11-02T00:25:38.740Z,99.99
2018-11-02T00:26:38.715Z,99.99
2018-11-02T00:27:38.695Z,99.99
2018-11-02T00:28:38.671Z,99.99
2018-11-02T00:29:38.636Z,99.99
2018-11-02T00:30:38.608Z,99.99
2018-11-02T00:31:38.648Z,99.99
2018-11-02T00:32:38.559Z,99.99
2018-11-02T00:33:38.527Z,99.99
2018-11-02T00:34:38.504Z,99.99
2018-11-02T00:35:38.475Z,99.99
2018-11-02T00:36:38.448Z,99.99
2018-11-02T00:37:38.422Z,99.99
2018-11-02T00:38:38.399Z,99.99
2018-11-02T00:39:38.365Z,99.99
2018-11-02T00:40:38.340Z,99.99
2018-11-02T00:41:38.312Z,99.99
2018-11-02T00:42:38.290Z,99.99
2018-11-02T00:43:38.255Z,99.99
2018-11-02T00:44:38.237Z,99.99
2018-11-02T00:45:38.206Z,99.99
2018-11-02T00:46:38.175Z,99.99
2018-11-02T00:47:38.155Z,99.99
2018-11-02T00:48:38.126Z,99.99
2018-11-02T00:49:38.095Z,99.99
2018-11-02T00:50:38.074Z,99.99
2018-11-02T00:51:38.041Z,99.99
2018-11-02T00:52:38.012Z,99.99
2018-11-02T00:53:38.010Z,99.99
2018-11-02T00:54:37.960Z,99.99
2018-11-02T00:55:37.968Z,99.99
2018-11-02T00:56:37.911Z,99.99
2018-11-02T00:57:37.881Z,99.99
2018-11-02T00:58:37.855Z,99.99
2018-11-02T00:59:37.824Z,99.99
2018-11-02T01:00:37.795Z,99.99
2018-11-02T01:01:37.780Z,99.99
2018-11-02T01:02:37.745Z,99.99
2018-11-02T01:03:37.720Z,99.99
2018-11-02T01:04:37.696Z,99.99
2018-11-02T01:05:37.666Z,99.99
2018-11-02T01:06:37.646Z,99.99
2018-11-02T01:07:37.609Z,99.99
2018-11-02T01:08:37.582Z,99.99
2018-11-02T01:09:37.589Z,99.99
2018-11-02T01:10:37.525Z,99.99
2018-11-02T01:11:37.506Z,99.99
2018-11-02T01:12:37.476Z,99.99
2018-11-02T01:13:37.446Z,99.99
2018-11-02T01:14:37.423Z,99.99
2018-11-02T01:15:37.398Z,99.99
2018-11-02T01:16:37.372Z,99.99
2018-11-02T01:17:37.344Z,99.99
2018-11-02T01:18:37.312Z,99.99
2018-11-02T01:19:37.292Z,99.99
2018-11-02T01:20:37.258Z,99.99
2018-11-02T01:21:37.238Z,99.99
2018-11-02T01:22:37.204Z,99.99
2018-11-02T01:23:37.181Z,99.99
2018-11-02T01:24:37.147Z,99.99
2018-11-02T01:25:37.132Z,99.99
2018-11-02T01:26:37.098Z,99.99
2018-11-02T01:27:37.073Z,99.99
2018-11-02T01:28:37.041Z,99.99
2018-11-02T01:29:37.012Z,99.99
2018-11-02T01:30:36.986Z,99.99
2018-11-02T01:31:36.966Z,99.99
2018-11-02T01:32:36.932Z,99.99
2018-11-02T01:33:36.912Z,99.99
2018-11-02T01:34:36.883Z,99.99
2018-11-02T01:35:36.855Z,99.99
2018-11-02T01:36:36.826Z,99.99
2018-11-02T01:37:36.802Z,99.99
2018-11-02T01:38:36.777Z,99.99
2018-11-02T01:39:36.751Z,99.99
2018-11-02T01:40:36.731Z,99.99
2018-11-02T01:41:36.696Z,99.99
2018-11-02T01:42:36.670Z,99.99
2018-11-02T01:43:36.638Z,99.99
2018-11-02T01:44:36.606Z,99.99
2018-11-02T01:45:36.618Z,99.99
2018-11-02T01:46:36.554Z,99.99
2018-11-02T01:47:36.532Z,99.99
2018-11-02T01:48:36.509Z,99.99
2018-11-02T01:49:36.484Z,99.99
2018-11-02T01:50:36.452Z,99.99
2018-11-02T01:51:36.415Z,99.99
2018-11-02T01:52:36.402Z,99.99
2018-11-02T01:53:36.360Z,99.99
2018-11-02T01:54:36.343Z,99.99
2018-11-02T01:55:36.313Z,99.99
2018-11-02T01:56:36.302Z,99.99
2018-11-02T01:57:36.259Z,99.99
2018-11-02T01:58:36.229Z,99.99
2018-11-02T01:59:36.199Z,99.99
2018-11-02T02:00:36.173Z,99.99
2018-11-02T02:01:36.149Z,99.99
2018-11-02T02:02:36.118Z,99.99
2018-11-02T02:03:36.092Z,99.99
2018-11-02T02:04:36.062Z,99.99
2018-11-02T02:05:36.048Z,99.99
2018-11-02T02:06:36.012Z,99.99
2018-11-02T02:07:35.980Z,99.99
2018-11-02T02:08:35.955Z,99.99
2018-11-02T02:09:35.930Z,99.99
2018-11-02T02:10:35.902Z,99.99
2018-11-02T02:11:35.878Z,99.99
2018-11-02T02:12:35.843Z,99.99
2018-11-02T02:13:35.826Z,99.99
2018-11-02T02:14:35.799Z,99.99
2018-11-02T02:15:35.798Z,99.99
2018-11-02T02:16:35.818Z,99.99
2018-11-02T02:17:35.711Z,99.99
2018-11-02T02:18:35.683Z,99.99
2018-11-02T02:19:35.661Z,99.99
2018-11-02T02:20:35.629Z,99.99
2018-11-02T02:21:35.598Z,99.99
2018-11-02T02:22:35.580Z,99.99
2018-11-02T02:23:35.541Z,99.99
2018-11-02T02:24:35.518Z,99.99
2018-11-02T02:25:35.496Z,99.99
2018-11-02T02:26:35.471Z,99.99
2018-11-02T02:27:35.438Z,99.99
2018-11-02T02:28:35.418Z,99.99
2018-11-02T02:29:35.377Z,99.99
2018-11-02T02:30:35.359Z,99.99
2018-11-02T02:31:35.325Z,99.99
2018-11-02T02:32:35.308Z,99.99
2018-11-02T02:33:35.274Z,99.99
2018-11-02T02:34:35.246Z,99.99
2018-11-02T02:35:35.224Z,99.99
2018-11-02T02:36:35.248Z,99.99
2018-11-02T02:37:35.162Z,99.99
2018-11-02T02:38:35.142Z,99.99
2018-11-02T02:39:35.106Z,99.99
2018-11-02T02:40:35.081Z,99.99
2018-11-02T02:41:35.055Z,99.99
2018-11-02T02:42:35.027Z,99.99
2018-11-02T02:43:35.001Z,99.99
2018-11-02T02:44:34.972Z,99.99
2018-11-02T02:45:34.950Z,99.99
2018-11-02T02:46:34.913Z,99.99
2018-11-02T02:47:34.889Z,99.99
2018-11-02T02:48:34.864Z,99.99
2018-11-02T02:49:34.842Z,99.99
2018-11-02T02:50:34.812Z,99.99
2018-11-02T02:51:34.783Z,99.99
2018-11-02T02:52:34.757Z,99.99
2018-11-02T02:53:34.722Z,99.99
2018-11-02T02:54:34.694Z,99.99
2018-11-02T02:55:34.677Z,99.99
2018-11-02T02:56:34.641Z,99.99
2018-11-02T02:57:34.621Z,99.99
2018-11-02T02:58:34.591Z,99.99
2018-11-02T02:59:34.566Z,99.99
2018-11-02T03:00:34.535Z,99.99
2018-11-02T03:01:34.510Z,99.99
2018-11-02T03:02:34.478Z,99.99
2018-11-02T03:03:34.454Z,99.99
2018-11-02T03:04:34.428Z,99.99
2018-11-02T03:05:34.397Z,99.99
2018-11-02T03:06:34.375Z,99.99
2018-11-02T03:07:34.341Z,99.99
2018-11-02T03:08:34.317Z,99.99
2018-11-02T03:09:34.293Z,99.99
2018-11-02T03:10:34.287Z,99.99
2018-11-02T03:11:34.230Z,99.99
2018-11-02T03:12:34.207Z,99.99
2018-11-02T03:13:34.182Z,99.99
2018-11-02T03:14:34.156Z,99.99
2018-11-02T03:15:34.128Z,99.99
2018-11-02T03:16:34.102Z,99.99
2018-11-02T03:17:34.070Z,99.99
2018-11-02T03:18:34.072Z,99.99
2018-11-02T03:19:34.021Z,99.99
2018-11-02T03:20:33.986Z,99.99
2018-11-02T03:21:33.959Z,99.99
2018-11-02T03:22:34.027Z,99.99
2018-11-02T03:23:33.913Z,99.99
2018-11-02T03:24:33.876Z,99.99
2018-11-02T03:25:33.855Z,99.99
2018-11-02T03:26:33.825Z,99.99
2018-11-02T03:27:33.795Z,99.99
2018-11-02T03:28:33.772Z,99.99
2018-11-02T03:29:33.741Z,99.99
2018-11-02T03:30:33.717Z,99.99
2018-11-02T03:31:33.685Z,99.99
2018-11-02T03:32:33.655Z,99.99
2018-11-02T03:33:33.636Z,99.99
2018-11-02T03:34:33.610Z,99.99
2018-11-02T03:35:33.580Z,99.99
2018-11-02T03:36:33.554Z,99.99
2018-11-02T03:37:33.524Z,99.99
2018-11-02T03:38:33.500Z,99.99
2018-11-02T03:39:33.477Z,99.99
2018-11-02T03:40:33.443Z,99.99
2018-11-02T03:41:33.412Z,99.99
2018-11-02T03:42:33.385Z,99.99
2018-11-02T03:43:33.359Z,99.99
2018-11-02T03:44:33.329Z,99.99
2018-11-02T03:45:33.306Z,99.99
2018-11-02T03:46:33.276Z,99.99
2018-11-02T03:47:33.248Z,99.99
2018-11-02T03:48:33.218Z,99.99
2018-11-02T03:49:33.189Z,99.99
2018-11-02T03:50:33.164Z,99.99
2018-11-02T03:51:33.135Z,99.99
2018-11-02T03:52:33.137Z,99.99
2018-11-02T03:53:33.089Z,99.99
2018-11-02T03:54:33.077Z,99.99
2018-11-02T03:55:33.024Z,99.99
2018-11-02T03:56:33.221Z,99.99
2018-11-02T03:57:32.978Z,99.99
2018-11-02T03:58:32.943Z,99.99
2018-11-02T03:59:32.925Z,99.99
2018-11-02T04:00:34.007Z,99.99
2018-11-02T04:01:32.869Z,99.99
2018-11-02T04:02:32.832Z,99.99
2018-11-02T04:03:32.809Z,99.99
2018-11-02T04:04:32.775Z,99.99
2018-11-02T04:05:32.762Z,99.99
2018-11-02T04:06:32.732Z,99.99
2018-11-02T04:07:32.694Z,99.99
2018-11-02T04:08:32.713Z,99.99
2018-11-02T04:09:32.691Z,99.99
2018-11-02T04:10:32.618Z,99.99
2018-11-02T04:11:32.592Z,99.99
2018-11-02T04:12:32.560Z,99.99
2018-11-02T04:13:32.538Z,99.99
2018-11-02T04:14:32.511Z,99.99
2018-11-02T04:15:32.480Z,99.99
2018-11-02T04:16:32.459Z,99.99
2018-11-02T04:17:32.421Z,99.99
2018-11-02T04:18:32.400Z,99.99
2018-11-02T04:19:32.396Z,99.99
2018-11-02T04:20:32.350Z,99.99
2018-11-02T04:21:32.312Z,99.99
2018-11-02T04:22:32.288Z,99.99
2018-11-02T04:23:32.263Z,99.99
2018-11-02T04:24:32.233Z,99.99
2018-11-02T04:25:32.205Z,99.99
2018-11-02T04:26:32.183Z,99.99
2018-11-02T04:27:32.154Z,99.99
2018-11-02T04:28:32.121Z,99.99
2018-11-02T04:29:32.099Z,99.99
2018-11-02T04:30:32.066Z,99.99
2018-11-02T04:31:32.046Z,99.99
2018-11-02T04:32:32.015Z,99.99
2018-11-02T04:33:31.987Z,99.99
2018-11-02T04:34:31.959Z,99.99
2018-11-02T04:35:31.929Z,99.99
2018-11-02T04:36:31.902Z,99.99
2018-11-02T04:37:31.897Z,99.99
2018-11-02T04:38:31.850Z,99.99
2018-11-02T04:39:31.829Z,99.99
2018-11-02T04:40:31.798Z,99.99
2018-11-02T04:41:31.763Z,99.99
2018-11-02T04:42:31.741Z,99.99
2018-11-02T04:43:31.710Z,99.99
2018-11-02T04:44:31.711Z,99.99
2018-11-02T04:45:31.661Z,99.99
2018-11-02T04:46:31.630Z,99.99
2018-11-02T04:47:31.603Z,99.99
2018-11-02T04:48:31.578Z,99.99
2018-11-02T04:49:31.547Z,99.99
2018-11-02T04:50:31.524Z,99.99
2018-11-02T04:51:31.489Z,99.99
2018-11-02T04:52:31.465Z,99.99
2018-11-02T04:53:31.440Z,99.99
2018-11-02T04:54:31.442Z,99.99
2018-11-02T04:55:31.386Z,99.99
2018-11-02T04:56:31.380Z,99.99
2018-11-02T04:57:31.329Z,99.99
2018-11-02T04:58:31.299Z,99.99
2018-11-02T04:59:31.272Z,99.99
2018-11-02T05:00:31.243Z,99.99
2018-11-02T05:01:31.218Z,99.99
2018-11-02T05:02:31.191Z,99.99
2018-11-02T05:03:31.160Z,99.99
2018-11-02T05:04:31.137Z,99.99
2018-11-02T05:05:31.106Z,99.99
2018-11-02T05:06:31.076Z,99.99
2018-11-02T05:07:31.050Z,99.99
2018-11-02T05:08:31.019Z,99.99
2018-11-02T05:09:31.005Z,99.99
2018-11-02T05:10:30.975Z,99.99
2018-11-02T05:11:31.079Z,99.99
2018-11-02T05:12:30.920Z,99.99
2018-11-02T05:13:30.900Z,99.99
2018-11-02T05:14:30.861Z,99.99
2018-11-02T05:15:30.832Z,99.99
2018-11-02T05:16:30.802Z,99.99
2018-11-02T05:17:30.780Z,99.99
2018-11-02T05:18:30.748Z,99.99
2018-11-02T05:19:30.727Z,99.99
2018-11-02T05:20:30.717Z,99.99
2018-11-02T05:21:30.849Z,99.99
2018-11-02T05:22:30.643Z,99.99
2018-11-02T05:23:30.622Z,99.99
2018-11-02T05:24:30.589Z,99.99
2018-11-02T05:25:30.555Z,99.99
2018-11-02T05:26:30.527Z,99.99
2018-11-02T05:27:30.506Z,99.99
2018-11-02T05:28:30.470Z,99.99
2018-11-02T05:29:30.460Z,99.99
2018-11-02T05:30:30.423Z,99.99
2018-11-02T05:31:30.393Z,99.99
2018-11-02T05:32:30.369Z,99.99
2018-11-02T05:33:30.334Z,99.99
2018-11-02T05:34:30.311Z,99.99
2018-11-02T05:35:30.279Z,99.99
2018-11-02T05:36:30.250Z,99.99
2018-11-02T05:37:30.237Z,99.99
2018-11-02T05:38:30.201Z,99.99
2018-11-02T05:39:30.198Z,99.99
2018-11-02T05:40:30.166Z,99.99
2018-11-02T05:41:30.122Z,99.99
2018-11-02T05:42:30.089Z,99.99
2018-11-02T05:43:30.065Z,99.99
2018-11-02T05:44:30.038Z,99.99
2018-11-02T05:45:30.002Z,99.99
2018-11-02T05:46:29.983Z,99.99
2018-11-02T05:47:30.024Z,99.99
2018-11-02T05:48:29.930Z,99.99
2018-11-02T05:49:29.908Z,99.99
2018-11-02T05:50:29.868Z,99.99
2018-11-02T05:51:29.845Z,99.99
2018-11-02T05:52:29.813Z,99.99
2018-11-02T05:53:29.788Z,99.99
2018-11-02T05:54:29.782Z,99.99
2018-11-02T05:55:29.759Z,99.99
2018-11-02T05:56:29.703Z,99.99
2018-11-02T05:57:29.679Z,99.99
2018-11-02T05:58:29.649Z,99.99
2018-11-02T05:59:29.627Z,99.99
2018-11-02T06:00:29.595Z,99.99
2018-11-02T06:01:29.628Z,99.99
2018-11-02T06:02:29.541Z,99.99
2018-11-02T06:03:29.515Z,99.99
2018-11-02T06:04:29.479Z,99.99
2018-11-02T06:05:29.460Z,99.99
2018-11-02T06:06:29.433Z,99.99
2018-11-02T06:07:29.400Z,99.99
2018-11-02T06:08:29.377Z,99.99
2018-11-02T06:09:29.346Z,99.99
2018-11-02T06:10:29.318Z,99.99
2018-11-02T06:11:29.288Z,99.99
2018-11-02T06:12:29.266Z,99.99
2018-11-02T06:13:29.302Z,99.99
2018-11-02T06:14:29.210Z,99.99
2018-11-02T06:15:29.178Z,99.99
2018-11-02T06:16:29.158Z,99.99
2018-11-02T06:17:29.130Z,99.99
2018-11-02T06:18:29.101Z,99.99
2018-11-02T06:19:29.068Z,99.99
2018-11-02T06:20:29.048Z,99.99
2018-11-02T06:21:29.015Z,99.99
2018-11-02T06:22:28.986Z,99.99
2018-11-02T06:23:28.964Z,99.99
2018-11-02T06:24:28.976Z,99.99
2018-11-02T06:25:28.911Z,99.99
2018-11-02T06:26:28.879Z,99.99
2018-11-02T06:27:28.855Z,99.99
2018-11-02T06:28:28.820Z,99.99
2018-11-02T06:29:28.799Z,99.99
2018-11-02T06:30:28.831Z,99.99
2018-11-02T06:31:28.740Z,99.99
2018-11-02T06:32:28.787Z,99.99
2018-11-02T06:33:28.686Z,99.99
2018-11-02T06:34:28.666Z,99.99
2018-11-02T06:35:28.717Z,99.99
2018-11-02T06:36:28.602Z,99.99
2018-11-02T06:37:28.574Z,99.99
2018-11-02T06:38:28.549Z,99.99
2018-11-02T06:39:28.545Z,99.99
2018-11-02T06:40:28.490Z,99.99
2018-11-02T06:41:28.467Z,99.99
2018-11-02T06:42:28.436Z,99.99
2018-11-02T06:43:28.415Z,99.99
2018-11-02T06:44:28.386Z,99.99
2018-11-02T06:45:28.357Z,99.99
2018-11-02T06:46:28.324Z,99.99
2018-11-02T06:47:28.298Z,99.99
2018-11-02T06:48:28.372Z,99.99
2018-11-02T06:49:28.265Z,99.99
2018-11-02T06:50:28.277Z,99.99
2018-11-02T06:51:28.209Z,99.99
2018-11-02T06:52:28.300Z,99.99
2018-11-02T06:53:28.154Z,99.99
2018-11-02T06:54:28.140Z,99.99
2018-11-02T06:55:28.114Z,99.99
2018-11-02T06:56:28.137Z,99.99
2018-11-02T06:57:28.090Z,99.99
2018-11-02T06:58:28.106Z,99.99
2018-11-02T06:59:28.105Z,99.99
2018-11-02T07:00:28.077Z,99.99
2018-11-02T07:01:27.977Z,99.99
2018-11-02T07:02:27.887Z,99.99
2018-11-02T07:03:27.855Z,99.99
2018-11-02T07:04:27.837Z,99.99
2018-11-02T07:05:27.802Z,99.99
2018-11-02T07:06:27.781Z,99.99
2018-11-02T07:07:27.798Z,99.99
2018-11-02T07:08:27.785Z,99.99
2018-11-02T07:09:27.697Z,99.99
2018-11-02T07:10:27.670Z,99.99
2018-11-02T07:11:27.660Z,99.99
2018-11-02T07:12:27.613Z,99.99
2018-11-02T07:13:27.587Z,99.99
2018-11-02T07:14:27.560Z,99.99
2018-11-02T07:15:27.528Z,99.99
2018-11-02T07:16:27.503Z,99.99
2018-11-02T07:17:27.477Z,99.99
2018-11-02T07:18:27.449Z,99.99
2018-11-02T07:19:27.418Z,99.99
2018-11-02T07:20:27.397Z,99.99
2018-11-02T07:21:27.368Z,99.99
2018-11-02T07:22:27.338Z,99.99
2018-11-02T07:23:27.312Z,99.99
2018-11-02T07:24:27.290Z,99.99
2018-11-02T07:25:27.252Z,99.99
2018-11-02T07:26:27.230Z,99.99
2018-11-02T07:27:27.200Z,99.99
2018-11-02T07:28:27.168Z,99.99
2018-11-02T07:29:27.151Z,99.99
2018-11-02T07:30:27.120Z,99.99
2018-11-02T07:31:27.093Z,99.99
2018-11-02T07:32:27.060Z,99.99
2018-11-02T07:33:27.044Z,99.99
2018-11-02T07:34:27.092Z,99.99
2018-11-02T07:35:26.980Z,99.99
2018-11-02T07:36:26.957Z,99.99
2018-11-02T07:37:26.936Z,99.99
2018-11-02T07:38:26.896Z,99.99
2018-11-02T07:39:26.875Z,99.99
2018-11-02T07:40:26.840Z,99.99
2018-11-02T07:41:26.819Z,99.99
2018-11-02T07:42:26.792Z,99.99
2018-11-02T07:43:26.757Z,99.99
2018-11-02T07:44:26.736Z,99.99
2018-11-02T07:45:26.700Z,99.99
2018-11-02T07:46:26.684Z,99.99
2018-11-02T07:47:26.701Z,99.99
2018-11-02T07:48:26.627Z,99.99
2018-11-02T07:49:26.683Z,99.99
2018-11-02T07:50:26.628Z,99.99
2018-11-02T07:51:26.543Z,99.99
2018-11-02T07:52:26.512Z,99.99
2018-11-02T07:53:26.483Z,99.99
2018-11-02T07:54:26.459Z,99.99
2018-11-02T07:55:26.435Z,99.99
2018-11-02T07:56:26.400Z,99.99
2018-11-02T07:57:26.379Z,99.99
2018-11-02T07:58:26.350Z,99.99
2018-11-02T07:59:26.318Z,99.99
2018-11-02T08:00:26.294Z,99.99
2018-11-02T08:01:26.266Z,99.99
2018-11-02T08:02:26.235Z,99.99
2018-11-02T08:03:26.218Z,99.99
2018-11-02T08:04:26.184Z,99.99
2018-11-02T08:05:26.154Z,99.99
2018-11-02T08:06:26.132Z,99.99
2018-11-02T08:07:26.100Z,99.99
2018-11-02T08:08:26.073Z,99.99
2018-11-02T08:09:26.044Z,99.99
2018-11-02T08:10:26.018Z,99.99
2018-11-02T08:11:26.054Z,99.99
2018-11-02T08:12:25.966Z,99.99
2018-11-02T08:13:25.945Z,99.99
2018-11-02T08:14:25.912Z,99.99
2018-11-02T08:15:25.884Z,99.99
2018-11-02T08:16:25.851Z,99.99
2018-11-02T08:17:25.860Z,99.99
2018-11-02T08:18:25.806Z,99.99
2018-11-02T08:19:25.766Z,99.99
2018-11-02T08:20:25.744Z,99.99
2018-11-02T08:21:25.720Z,99.99
2018-11-02T08:22:25.687Z,99.99
2018-11-02T08:23:25.671Z,99.99
2018-11-02T08:24:25.712Z,99.99
2018-11-02T08:25:25.607Z,99.99
2018-11-02T08:26:25.584Z,99.99
2018-11-02T08:27:25.546Z,99.99
2018-11-02T08:28:25.528Z,99.99
2018-11-02T08:29:25.493Z,99.99
2018-11-02T08:30:25.472Z,99.99
2018-11-02T08:31:25.449Z,99.99
2018-11-02T08:32:25.411Z,99.99
2018-11-02T08:33:25.393Z,99.99
2018-11-02T08:34:25.362Z,99.99
2018-11-02T08:35:25.334Z,99.99
2018-11-02T08:36:25.303Z,99.99
2018-11-02T08:37:25.282Z,99.99
2018-11-02T08:38:25.250Z,99.99
2018-11-02T08:39:25.223Z,99.99
2018-11-02T08:40:25.204Z,99.99
2018-11-02T08:41:25.163Z,99.99
2018-11-02T08:42:25.139Z,99.99
2018-11-02T08:43:25.117Z,99.99
2018-11-02T08:44:25.084Z,99.99
2018-11-02T08:45:25.064Z,99.99
2018-11-02T08:46:25.047Z,99.99
2018-11-02T08:47:25.000Z,99.99
2018-11-02T08:48:24.980Z,99.99
2018-11-02T08:49:24.946Z,99.99
2018-11-02T08:50:24.928Z,99.99
2018-11-02T08:51:24.895Z,99.99
2018-11-02T08:52:24.972Z,99.99
2018-11-02T08:53:24.837Z,99.99
2018-11-02T08:54:24.815Z,99.99
2018-11-02T08:55:24.790Z,99.99
2018-11-02T08:56:24.756Z,99.99
2018-11-02T08:57:24.737Z,99.99
2018-11-02T08:58:24.968Z,99.99
2018-11-02T08:59:24.765Z,99.99
2018-11-02T09:00:24.648Z,99.99
2018-11-02T09:01:24.622Z,99.99
2018-11-02T09:02:24.589Z,99.99
2018-11-02T09:03:24.570Z,99.99
2018-11-02T09:04:24.539Z,99.99
2018-11-02T09:05:24.508Z,99.99
2018-11-02T09:06:24.481Z,99.99
2018-11-02T09:07:24.460Z,99.99
2018-11-02T09:08:24.433Z,99.99
2018-11-02T09:09:24.406Z,99.99
2018-11-02T09:10:24.373Z,99.99
2018-11-02T09:11:24.343Z,99.99
2018-11-02T09:12:24.326Z,99.99
2018-11-02T09:13:24.305Z,99.99
2018-11-02T09:14:24.267Z,99.99
2018-11-02T09:15:24.240Z,99.99
2018-11-02T09:16:24.208Z,99.99
2018-11-02T09:17:24.190Z,99.99
2018-11-02T09:18:24.161Z,99.99
2018-11-02T09:19:24.189Z,99.99
2018-11-02T09:20:24.123Z,99.99
2018-11-02T09:21:24.071Z,99.99
2018-11-02T09:22:24.049Z,99.99
2018-11-02T09:23:24.012Z,99.99
2018-11-02T09:24:23.991Z,99.99
2018-11-02T09:25:23.964Z,99.99
2018-11-02T09:26:23.932Z,99.99
2018-11-02T09:27:23.913Z,99.99
2018-11-02T09:28:23.885Z,99.99
2018-11-02T09:29:23.904Z,99.99
2018-11-02T09:30:23.832Z,99.99
2018-11-02T09:31:23.800Z,99.99
2018-11-02T09:32:23.770Z,99.99
2018-11-02T09:33:23.745Z,99.99
2018-11-02T09:34:23.716Z,99.99
2018-11-02T09:35:23.693Z,99.99
2018-11-02T09:36:23.663Z,99.99
2018-11-02T09:37:23.633Z,99.99
2018-11-02T09:38:23.609Z,99.99
2018-11-02T09:39:23.583Z,99.99
2018-11-02T09:40:23.637Z,99.99
2018-11-02T09:41:23.529Z,99.99
2018-11-02T09:42:23.503Z,99.99
2018-11-02T09:43:23.471Z,99.99
2018-11-02T09:44:23.448Z,99.99
2018-11-02T09:45:23.415Z,99.99
2018-11-02T09:46:23.421Z,99.99
2018-11-02T09:47:23.362Z,99.99
2018-11-02T09:48:23.335Z,99.99
2018-11-02T09:49:23.306Z,99.89
2018-11-02T09:50:23.278Z,99.99
2018-11-02T09:51:23.369Z,99.99
2018-11-02T09:52:23.227Z,99.99
2018-11-02T09:53:23.201Z,99.99
2018-11-02T09:54:23.182Z,99.51
2018-11-02T09:55:23.146Z,99.80
2018-11-02T09:56:23.117Z,98.94
2018-11-02T09:57:23.098Z,99.32
2018-11-02T09:58:23.067Z,99.13
2018-11-02T09:59:23.040Z,98.85
2018-11-02T10:00:23.012Z,99.70
2018-11-02T10:01:22.986Z,99.70
2018-11-02T10:02:22.954Z,99.08
2018-11-02T10:03:22.930Z,99.37
2018-11-02T10:04:22.902Z,99.89
2018-11-02T10:05:22.875Z,99.99
2018-11-02T10:06:22.849Z,99.80
2018-11-02T10:07:22.817Z,99.99
2018-11-02T10:08:22.803Z,99.80
2018-11-02T10:09:22.868Z,99.99
2018-11-02T10:10:22.753Z,99.80
2018-11-02T10:11:22.718Z,99.70
2018-11-02T10:12:22.684Z,99.41
2018-11-02T10:13:22.653Z,99.51
2018-11-02T10:14:22.626Z,99.70
2018-11-02T10:15:22.597Z,99.32
2018-11-02T10:16:22.577Z,99.51
2018-11-02T10:17:22.543Z,99.99
2018-11-02T10:18:22.524Z,99.60
2018-11-02T10:19:22.493Z,99.51
2018-11-02T10:20:22.471Z,99.80
2018-11-02T10:21:22.439Z,99.80
2018-11-02T10:22:22.407Z,98.56
2018-11-02T10:23:22.388Z,98.75
2018-11-02T10:24:22.358Z,98.27
2018-11-02T10:25:22.329Z,98.18
2018-11-02T10:26:22.299Z,98.56
2018-11-02T10:27:22.291Z,97.89
2018-11-02T10:28:22.348Z,98.08
2018-11-02T10:29:22.224Z,98.85
2018-11-02T10:30:22.197Z,98.36
2018-11-02T10:31:22.162Z,97.61
2018-11-02T10:32:22.142Z,98.80
2018-11-02T10:33:22.111Z,98.42
2018-11-02T10:34:22.084Z,97.94
2018-11-02T10:35:22.098Z,97.85
2018-11-02T10:36:22.032Z,97.08
2018-11-02T10:37:22.009Z,96.98
2018-11-02T10:38:21.974Z,97.46
2018-11-02T10:39:21.960Z,96.46
2018-11-02T10:40:21.931Z,96.36
2018-11-02T10:41:21.892Z,98.08
2018-11-02T10:42:21.865Z,97.80
2018-11-02T10:43:21.840Z,97.99
2018-11-02T10:44:21.871Z,98.08
2018-11-02T10:45:21.802Z,97.80
2018-11-02T10:46:21.759Z,97.94
2018-11-02T10:47:21.729Z,97.80
2018-11-02T10:48:21.704Z,96.98
2018-11-02T10:49:21.780Z,96.36
2018-11-02T10:50:21.655Z,97.13
2018-11-02T10:51:21.626Z,95.89
2018-11-02T10:52:21.595Z,96.36
2018-11-02T10:53:21.565Z,95.98
2018-11-02T10:54:21.548Z,96.98
2018-11-02T10:55:21.516Z,97.66
2018-11-02T10:56:21.539Z,98.32
2018-11-02T10:57:21.532Z,97.85
2018-11-02T10:58:21.436Z,96.13
2018-11-02T10:59:21.406Z,96.32
2018-11-02T11:00:21.379Z,95.94
2018-11-02T11:01:21.374Z,95.27
2018-11-02T11:02:21.322Z,96.51
2018-11-02T11:03:21.302Z,96.51
2018-11-02T11:04:21.268Z,95.65
2018-11-02T11:05:21.315Z,95.37
2018-11-02T11:06:21.216Z,95.46
2018-11-02T11:07:21.193Z,95.37
2018-11-02T11:08:21.159Z,95.08
2018-11-02T11:09:21.134Z,95.94
2018-11-02T11:10:21.112Z,96.13
2018-11-02T11:11:21.088Z,96.13
2018-11-02T11:12:21.155Z,97.17
2018-11-02T11:13:21.272Z,95.65
2018-11-02T11:14:21.002Z,94.98
2018-11-02T11:15:20.976Z,95.75
2018-11-02T11:16:20.950Z,95.56
2018-11-02T11:17:20.932Z,95.65
2018-11-02T11:18:20.895Z,95.17
2018-11-02T11:19:20.865Z,94.89
2018-11-02T11:20:20.838Z,95.08
2018-11-02T11:21:20.832Z,95.37
2018-11-02T11:22:20.785Z,95.46
2018-11-02T11:23:20.753Z,96.03
2018-11-02T11:24:20.734Z,96.41
2018-11-02T11:25:20.705Z,96.89
2018-11-02T11:26:20.675Z,96.22
2018-11-02T11:27:20.653Z,96.03
2018-11-02T11:28:20.623Z,95.56
2018-11-02T11:29:20.641Z,96.03
2018-11-02T11:30:20.571Z,94.41
2018-11-02T11:31:20.542Z,92.22
2018-11-02T11:32:20.517Z,91.55
2018-11-02T11:33:20.486Z,90.22
2018-11-02T11:34:20.464Z,90.98
2018-11-02T11:35:20.435Z,91.17
2018-11-02T11:36:20.406Z,90.69
2018-11-02T11:37:20.407Z,90.50
2018-11-02T11:38:20.356Z,91.83
2018-11-02T11:39:20.324Z,91.17
2018-11-02T11:40:20.304Z,90.41
2018-11-02T11:41:20.280Z,90.41
2018-11-02T11:42:20.245Z,90.50
2018-11-02T11:43:20.213Z,89.93
2018-11-02T11:44:20.199Z,90.31
2018-11-02T11:45:20.162Z,91.27
2018-11-02T11:46:20.137Z,92.12
2018-11-02T11:47:20.113Z,89.83
2018-11-02T11:48:20.089Z,90.50
2018-11-02T11:49:20.188Z,90.88
2018-11-02T11:50:20.032Z,91.27
2018-11-02T11:51:20.001Z,88.98
2018-11-02T11:52:19.972Z,89.07
2018-11-02T11:53:19.956Z,89.17
2018-11-02T11:54:19.938Z,87.64
2018-11-02T11:55:19.892Z,88.02
2018-11-02T11:56:19.866Z,88.02
2018-11-02T11:57:19.841Z,86.88
2018-11-02T11:58:19.817Z,87.16
2018-11-02T11:59:19.795Z,87.45
2018-11-02T12:00:19.767Z,86.59
2018-11-02T12:01:19.739Z,86.59
2018-11-02T12:02:19.823Z,84.97
2018-11-02T12:03:19.684Z,84.69
2018-11-02T12:04:19.671Z,85.01
2018-11-02T12:05:19.634Z,83.77
2018-11-02T12:06:19.605Z,84.53
2018-11-02T12:07:20.348Z,84.44
2018-11-02T12:08:19.549Z,83.96
2018-11-02T12:09:19.591Z,84.72
2018-11-02T12:10:19.548Z,84.06
2018-11-02T12:11:19.470Z,83.20
2018-11-02T12:12:19.436Z,83.48
2018-11-02T12:13:19.410Z,84.53
2018-11-02T12:14:19.387Z,84.53
2018-11-02T12:15:19.358Z,84.53
2018-11-02T12:16:19.542Z,84.44
2018-11-02T12:17:19.306Z,84.72
2018-11-02T12:18:19.301Z,85.77
2018-11-02T12:19:19.245Z,85.49
2018-11-02T12:20:19.227Z,85.87
2018-11-02T12:21:19.207Z,86.25
2018-11-02T12:22:19.169Z,86.58
2018-11-02T12:23:19.207Z,85.82
2018-11-02T12:24:19.118Z,86.16
2018-11-02T12:25:19.093Z,84.72
2018-11-02T12:26:19.061Z,83.58
2018-11-02T12:27:19.084Z,84.16
2018-11-02T12:28:19.105Z,83.77
2018-11-02T12:29:18.982Z,83.48
2018-11-02T12:30:18.957Z,83.20
2018-11-02T12:31:18.926Z,83.67
2018-11-02T12:32:18.899Z,84.25
2018-11-02T12:33:18.880Z,84.72
2018-11-02T12:34:18.850Z,84.82
2018-11-02T12:35:18.820Z,87.02
2018-11-02T12:36:18.881Z,86.63
2018-11-02T12:37:18.949Z,85.30
2018-11-02T12:38:18.744Z,86.44
2018-11-02T12:39:18.758Z,85.77
2018-11-02T12:40:18.685Z,86.44
2018-11-02T12:41:18.661Z,85.21
2018-11-02T12:42:18.635Z,83.39
2018-11-02T12:43:18.641Z,85.49
2018-11-02T12:44:18.581Z,85.58
2018-11-02T12:45:18.597Z,85.87
2018-11-02T12:46:18.535Z,85.68
2018-11-02T12:47:18.501Z,84.82
2018-11-02T12:48:18.577Z,85.21
2018-11-02T12:49:18.823Z,85.93
2018-11-02T12:50:18.603Z,86.30
2018-11-02T12:51:18.392Z,86.59
2018-11-02T12:52:18.368Z,86.88